createdAt,value
2023-02-08T00:01:09.146Z,102323.30
2023-02-08T00:03:37.564Z,102321.73
2023-02-08T00:06:06.038Z,102321.55
2023-02-08T00:08:36.874Z,102320.48
2023-02-08T00:11:05.992Z,102322.71
2023-02-08T00:13:34.195Z,102320.42
2023-02-08T00:16:02.406Z,102320.56
2023-02-08T00:18:31.349Z,102319.52
2023-02-08T00:20:59.872Z,102320.81
2023-02-08T00:23:27.837Z,102326.72
2023-02-08T00:25:55.722Z,102328.80
2023-02-08T00:28:23.969Z,102328.78
2023-02-08T00:30:53.640Z,102322.55
2023-02-08T00:33:22.092Z,102328.20
2023-02-08T00:35:50.155Z,102336.77
2023-02-08T00:38:21.240Z,102333.63
2023-02-08T00:40:50.250Z,102336.86
2023-02-08T00:43:18.874Z,102339.39
2023-02-08T00:45:47.149Z,102341.67
2023-02-08T00:48:15.219Z,102341.59
2023-02-08T00:50:45.281Z,102346.29
2023-02-08T00:53:13.314Z,102350.72
2023-02-08T00:55:42.579Z,102358.78
2023-02-08T00:58:11.634Z,102364.06
2023-02-08T01:00:40.414Z,102366.41
2023-02-08T01:03:08.767Z,102367.52
2023-02-08T01:05:42.038Z,102369.83
2023-02-08T01:08:10.303Z,102374.77
2023-02-08T01:10:38.709Z,102376.23
2023-02-08T01:13:06.992Z,102380.09
2023-02-08T01:15:35.280Z,102381.65
2023-02-08T01:18:03.752Z,102385.93
2023-02-08T01:20:34.171Z,102388.83
2023-02-08T01:23:03.083Z,102393.61
2023-02-08T01:25:33.213Z,102396.85
2023-02-08T01:28:01.362Z,102398.20
2023-02-08T01:30:29.744Z,102405.72
2023-02-08T01:32:57.734Z,102415.38
2023-02-08T01:35:29.153Z,102417.52
2023-02-08T01:37:59.621Z,102421.70
2023-02-08T01:40:27.863Z,102427.73
2023-02-08T01:42:56.119Z,102431.80
2023-02-08T01:45:26.436Z,102434.68
2023-02-08T01:48:12.409Z,102440.77
2023-02-08T01:50:48.961Z,102441.13
2023-02-08T01:53:17.087Z,102444.11
2023-02-08T01:55:49.092Z,102445.95
2023-02-08T01:58:18.048Z,102442.07
2023-02-08T02:00:46.780Z,102439.70
2023-02-08T02:03:15.031Z,102442.63
2023-02-08T02:05:50.314Z,102445.69
2023-02-08T02:08:18.744Z,102449.63
2023-02-08T02:10:49.589Z,102451.10
2023-02-08T02:13:20.703Z,102457.19
2023-02-08T02:15:49.087Z,102451.41
2023-02-08T02:18:23.372Z,102455.69
2023-02-08T02:21:13.507Z,102457.36
2023-02-08T02:24:20.485Z,102459.35
2023-02-08T02:27:06.993Z,102463.00
2023-02-08T02:29:50.428Z,102467.44
2023-02-08T02:32:24.572Z,102466.21
2023-02-08T02:35:01.754Z,102463.94
2023-02-08T02:37:29.878Z,102464.71
2023-02-08T02:40:10.449Z,102470.99
2023-02-08T02:43:26.139Z,102470.02
2023-02-08T02:46:05.136Z,102472.29
2023-02-08T02:48:59.484Z,102474.59
2023-02-08T02:51:33.436Z,102477.91
2023-02-08T02:54:14.748Z,102480.72
2023-02-08T02:56:46.417Z,102483.11
2023-02-08T02:59:16.003Z,102481.58
2023-02-08T03:01:45.233Z,102483.19
2023-02-08T03:04:14.977Z,102488.48
2023-02-08T03:07:04.083Z,102492.28
2023-02-08T03:09:35.432Z,102497.11
2023-02-08T03:12:15.385Z,102494.40
2023-02-08T03:15:22.336Z,102504.13
2023-02-08T03:18:00.941Z,102505.98
2023-02-08T03:20:40.570Z,102505.78
2023-02-08T03:23:19.696Z,102511.39
2023-02-08T03:25:51.357Z,102511.11
2023-02-08T03:28:25.756Z,102510.52
2023-02-08T03:31:01.924Z,102510.50
2023-02-08T03:33:37.822Z,102514.36
2023-02-08T03:36:09.098Z,102515.29
2023-02-08T03:38:40.779Z,102521.02
2023-02-08T03:41:12.194Z,102525.95
2023-02-08T03:43:47.039Z,102525.23
2023-02-08T03:46:19.131Z,102529.80
2023-02-08T03:48:49.743Z,102533.21
2023-02-08T03:51:18.018Z,102531.86
2023-02-08T03:53:46.059Z,102532.84
2023-02-08T03:56:21.792Z,102537.35
2023-02-08T03:58:52.455Z,102540.70
2023-02-08T04:01:24.699Z,102543.22
2023-02-08T04:03:54.074Z,102550.72
2023-02-08T04:06:22.014Z,102553.23
2023-02-08T04:08:50.720Z,102556.23
2023-02-08T04:11:20.000Z,102563.11
2023-02-08T04:13:48.440Z,102566.19
2023-02-08T04:16:16.455Z,102566.48
2023-02-08T04:18:44.465Z,102570.96
2023-02-08T04:21:12.684Z,102575.52
2023-02-08T04:23:41.365Z,102579.17
2023-02-08T04:26:09.739Z,102583.53
2023-02-08T04:28:38.457Z,102583.25
2023-02-08T04:31:06.809Z,102585.24
2023-02-08T04:33:36.832Z,102586.30
2023-02-08T04:36:05.594Z,102583.72
2023-02-08T04:38:34.209Z,102591.40
2023-02-08T04:41:02.527Z,102597.47
2023-02-08T04:43:30.497Z,102596.73
2023-02-08T04:45:58.568Z,102597.19
2023-02-08T04:48:26.588Z,102598.41
2023-02-08T04:50:58.145Z,102607.38
2023-02-08T04:53:26.199Z,102611.34
2023-02-08T04:55:54.286Z,102612.27
2023-02-08T04:58:22.671Z,102614.31
2023-02-08T05:00:50.829Z,102614.41
2023-02-08T05:03:18.917Z,102617.31
2023-02-08T05:05:47.120Z,102619.58
2023-02-08T05:08:15.352Z,102615.88
2023-02-08T05:10:46.524Z,102617.38
2023-02-08T05:13:14.876Z,102619.55
2023-02-08T05:15:43.817Z,102622.05
2023-02-08T05:18:13.339Z,102618.77
2023-02-08T05:20:41.548Z,102618.96
2023-02-08T05:23:09.853Z,102624.38
2023-02-08T05:25:39.431Z,102634.15
2023-02-08T05:28:07.644Z,102644.75
2023-02-08T05:30:36.595Z,102654.81
2023-02-08T05:33:04.495Z,102656.98
2023-02-08T05:35:32.657Z,102656.02
2023-02-08T05:38:01.124Z,102658.85
2023-02-08T05:40:29.652Z,102661.77
2023-02-08T05:42:57.664Z,102665.23
2023-02-08T05:45:25.712Z,102667.55
2023-02-08T05:47:53.977Z,102667.48
2023-02-08T05:50:22.296Z,102671.89
2023-02-08T05:52:52.004Z,102673.43
2023-02-08T05:55:19.983Z,102677.89
2023-02-08T05:57:47.935Z,102678.31
2023-02-08T06:00:17.186Z,102677.77
2023-02-08T06:02:45.229Z,102676.63
2023-02-08T06:05:13.680Z,102681.36
2023-02-08T06:07:42.072Z,102685.44
2023-02-08T06:10:11.411Z,102686.46
2023-02-08T06:12:40.491Z,102681.48
2023-02-08T06:15:09.940Z,102681.36
2023-02-08T06:17:38.894Z,102683.31
2023-02-08T06:20:07.651Z,102688.15
2023-02-08T06:22:35.628Z,102689.35
2023-02-08T06:25:03.863Z,102690.60
2023-02-08T06:27:32.316Z,102690.48
2023-02-08T06:30:00.343Z,102691.54
2023-02-08T06:32:28.780Z,102693.31
2023-02-08T06:34:57.112Z,102700.95
2023-02-08T06:37:25.101Z,102704.63
2023-02-08T06:39:53.157Z,102704.64
2023-02-08T06:42:21.335Z,102704.09
2023-02-08T06:44:55.176Z,102706.97
2023-02-08T06:50:16.649Z,102709.10
2023-02-08T06:52:44.896Z,102712.41
2023-02-08T06:55:12.800Z,102707.44
2023-02-08T06:57:42.454Z,102714.67
2023-02-08T07:00:12.118Z,102713.46
2023-02-08T07:02:40.339Z,102715.39
2023-02-08T07:05:08.513Z,102714.73
2023-02-08T07:07:37.014Z,102712.25
2023-02-08T07:10:05.230Z,102713.87
2023-02-08T07:12:36.816Z,102711.59
2023-02-08T07:15:04.840Z,102710.63
2023-02-08T07:17:34.094Z,102711.45
2023-02-08T07:20:01.979Z,102713.96
2023-02-08T07:22:30.198Z,102712.85
2023-02-08T07:24:59.456Z,102708.27
2023-02-08T07:27:27.276Z,102709.19
2023-02-08T07:29:55.425Z,102704.75
2023-02-08T07:32:23.334Z,102705.98
2023-02-08T07:34:51.290Z,102711.14
2023-02-08T07:37:19.158Z,102710.05
2023-02-08T07:39:47.209Z,102709.39
2023-02-08T07:42:15.175Z,102709.17
2023-02-08T07:44:51.890Z,102711.42
2023-02-08T07:47:19.820Z,102719.88
2023-02-08T07:49:47.862Z,102718.25
2023-02-08T07:52:16.169Z,102717.31
2023-02-08T07:54:44.240Z,102718.09
2023-02-08T07:57:12.154Z,102716.98
2023-02-08T07:59:40.220Z,102717.58
2023-02-08T08:02:08.899Z,102719.36
2023-02-08T08:04:37.533Z,102723.73
2023-02-08T08:07:06.285Z,102726.52
2023-02-08T08:09:35.029Z,102723.61
2023-02-08T08:12:03.270Z,102722.75
2023-02-08T08:14:31.532Z,102721.55
2023-02-08T08:16:59.437Z,102726.40
2023-02-08T08:19:28.780Z,102728.82
2023-02-08T08:21:57.066Z,102728.30
2023-02-08T08:24:25.153Z,102725.52
2023-02-08T08:26:53.940Z,102725.17
2023-02-08T08:29:21.901Z,102729.30
2023-02-08T08:31:49.841Z,102732.75
2023-02-08T08:34:17.805Z,102730.63
2023-02-08T08:36:46.116Z,102732.11
2023-02-08T08:39:13.977Z,102730.60
2023-02-08T08:41:41.930Z,102727.71
2023-02-08T08:44:09.928Z,102729.34
2023-02-08T08:46:38.213Z,102728.14
2023-02-08T08:49:06.549Z,102731.27
2023-02-08T08:51:35.610Z,102727.61
2023-02-08T08:54:04.796Z,102733.48
2023-02-08T08:56:32.872Z,102735.71
2023-02-08T08:59:01.301Z,102737.54
2023-02-08T09:01:29.556Z,102739.02
2023-02-08T09:03:57.504Z,102735.52
2023-02-08T09:06:25.657Z,102732.33
2023-02-08T09:08:53.752Z,102730.74
2023-02-08T09:11:21.670Z,102735.77
2023-02-08T09:13:52.999Z,102736.87
2023-02-08T09:16:24.868Z,102735.52
2023-02-08T09:18:52.996Z,102735.85
2023-02-08T09:21:22.568Z,102731.63
2023-02-08T09:23:50.627Z,102728.83
2023-02-08T09:26:19.469Z,102730.76
2023-02-08T09:28:47.470Z,102725.77
2023-02-08T09:31:19.632Z,102728.42
2023-02-08T09:33:48.813Z,102720.83
2023-02-08T09:36:17.176Z,102717.91
2023-02-08T09:38:45.374Z,102711.95
2023-02-08T09:41:38.751Z,102710.98
2023-02-08T09:44:28.625Z,102713.39
2023-02-08T09:47:03.633Z,102707.84
2023-02-08T09:49:34.517Z,102699.63
2023-02-08T09:52:04.491Z,102701.77
2023-02-08T09:54:38.307Z,102694.83
2023-02-08T09:57:13.777Z,102693.75
2023-02-08T09:59:47.444Z,102690.71
2023-02-08T10:02:32.576Z,102687.31
2023-02-08T10:05:03.938Z,102683.21
2023-02-08T10:07:33.091Z,102676.86
2023-02-08T10:10:12.128Z,102673.00
2023-02-08T10:12:48.001Z,102676.77
2023-02-08T10:15:36.679Z,102671.61
2023-02-08T10:18:26.396Z,102671.31
2023-02-08T10:21:31.525Z,102674.84
2023-02-08T10:24:11.898Z,102674.88
2023-02-08T10:26:53.329Z,102677.21
2023-02-08T10:29:31.704Z,102674.14
2023-02-08T10:32:22.697Z,102675.49
2023-02-08T10:35:03.351Z,102675.41
2023-02-08T10:37:36.028Z,102677.73
2023-02-08T10:40:44.154Z,102677.35
2023-02-08T10:43:35.621Z,102673.55
2023-02-08T10:46:26.623Z,102670.15
2023-02-08T10:49:07.663Z,102668.67
2023-02-08T10:51:36.381Z,102668.11
2023-02-08T10:54:04.830Z,102674.41
2023-02-08T10:56:52.988Z,102667.45
2023-02-08T10:59:26.904Z,102669.53
2023-02-08T11:01:54.976Z,102674.27
2023-02-08T11:04:22.869Z,102673.48
2023-02-08T11:06:51.923Z,102675.91
2023-02-08T11:09:23.922Z,102680.32
2023-02-08T11:11:56.432Z,102680.34
2023-02-08T11:14:46.277Z,102679.72
2023-02-08T11:17:27.730Z,102681.10
2023-02-08T11:19:56.111Z,102680.15
2023-02-08T11:22:26.824Z,102682.08
2023-02-08T11:24:57.763Z,102683.77
2023-02-08T11:27:28.686Z,102683.90
2023-02-08T11:30:15.845Z,102682.40
2023-02-08T11:32:48.672Z,102681.64
2023-02-08T11:35:26.009Z,102681.90
2023-02-08T11:37:55.477Z,102682.40
2023-02-08T11:40:29.790Z,102684.91
2023-02-08T11:42:57.877Z,102685.55
2023-02-08T11:45:31.214Z,102682.43
2023-02-08T11:48:01.706Z,102679.27
2023-02-08T11:50:34.936Z,102678.10
2023-02-08T11:53:06.790Z,102675.88
2023-02-08T11:55:35.257Z,102671.38
2023-02-08T11:58:04.754Z,102671.08
2023-02-08T12:00:36.451Z,102668.41
2023-02-08T12:03:15.085Z,102669.98
2023-02-08T12:05:54.248Z,102671.75
2023-02-08T12:09:00.680Z,102668.71
2023-02-08T12:11:49.131Z,102669.06
2023-02-08T12:14:42.375Z,102670.49
2023-02-08T12:17:55.677Z,102670.61
2023-02-08T12:20:45.449Z,102670.67
2023-02-08T12:23:46.592Z,102665.94
2023-02-08T12:26:25.895Z,102665.82
2023-02-08T12:29:06.871Z,102668.98
2023-02-08T12:31:42.884Z,102674.40
2023-02-08T12:34:22.750Z,102672.80
2023-02-08T12:37:22.088Z,102667.90
2023-02-08T12:40:18.687Z,102668.90
2023-02-08T12:43:15.432Z,102677.10
2023-02-08T12:45:59.112Z,102682.49
2023-02-08T12:48:35.581Z,102673.17
2023-02-08T12:51:28.740Z,102669.61
2023-02-08T12:54:30.902Z,102664.64
2023-02-08T12:57:02.440Z,102662.70
2023-02-08T12:59:56.544Z,102663.98
2023-02-08T13:02:57.473Z,102667.36
2023-02-08T13:05:28.745Z,102667.48
2023-02-08T13:08:32.809Z,102661.39
2023-02-08T13:11:18.857Z,102656.61
2023-02-08T13:14:13.022Z,102656.56
2023-02-08T13:16:44.172Z,102650.73
2023-02-08T13:19:24.859Z,102651.31
2023-02-08T13:21:53.639Z,102643.20
2023-02-08T13:24:38.761Z,102644.48
2023-02-08T13:27:08.250Z,102643.70
2023-02-08T13:29:36.396Z,102642.56
2023-02-08T13:32:29.798Z,102639.99
2023-02-08T13:35:02.898Z,102632.52
2023-02-08T13:37:32.426Z,102635.59
2023-02-08T13:40:12.876Z,102638.20
2023-02-08T13:42:43.169Z,102635.88
2023-02-08T13:45:25.712Z,102631.09
2023-02-08T13:48:02.471Z,102628.44
2023-02-08T13:50:44.848Z,102627.11
2023-02-08T13:53:14.880Z,102622.31
2023-02-08T13:55:43.058Z,102619.03
2023-02-08T13:58:14.137Z,102617.38
2023-02-08T14:00:54.990Z,102616.25
2023-02-08T14:03:27.898Z,102620.68
2023-02-08T14:06:22.575Z,102623.70
2023-02-08T14:08:57.510Z,102624.79
2023-02-08T14:11:57.334Z,102621.61
2023-02-08T14:14:26.738Z,102625.24
2023-02-08T14:17:04.167Z,102625.81
2023-02-08T14:19:33.890Z,102625.45
2023-02-08T14:22:07.089Z,102626.21
2023-02-08T14:24:49.829Z,102627.05
2023-02-08T14:27:40.964Z,102630.96
2023-02-08T14:30:17.929Z,102630.80
2023-02-08T14:33:04.939Z,102627.23
2023-02-08T14:35:34.332Z,102626.33
2023-02-08T14:38:32.852Z,102629.92
2023-02-08T14:41:02.029Z,102633.22
2023-02-08T14:43:41.177Z,102632.63
2023-02-08T14:46:54.976Z,102630.19
2023-02-08T14:49:23.254Z,102628.07
2023-02-08T14:51:56.873Z,102630.69
2023-02-08T14:54:33.032Z,102637.45
2023-02-08T14:57:04.156Z,102635.54
2023-02-08T14:59:32.706Z,102630.67
2023-02-08T15:02:11.392Z,102635.47
2023-02-08T15:04:44.514Z,102636.06
2023-02-08T15:07:16.578Z,102635.39
2023-02-08T15:09:45.537Z,102631.55
2023-02-08T15:12:30.450Z,102630.38
2023-02-08T15:15:01.448Z,102624.86
2023-02-08T15:17:34.122Z,102619.61
2023-02-08T15:20:06.070Z,102622.65
2023-02-08T15:22:40.344Z,102623.42
2023-02-08T15:25:35.575Z,102629.57
2023-02-08T15:28:22.302Z,102626.36
2023-02-08T15:31:09.598Z,102621.96
2023-02-08T15:33:43.705Z,102620.51
2023-02-08T15:36:21.203Z,102622.66
2023-02-08T15:38:49.337Z,102623.41
2023-02-08T15:41:31.772Z,102626.94
2023-02-08T15:44:20.595Z,102625.41
2023-02-08T15:46:50.022Z,102627.17
2023-02-08T15:49:22.200Z,102622.38
2023-02-08T15:51:51.083Z,102630.17
2023-02-08T15:54:19.116Z,102634.52
2023-02-08T15:57:17.781Z,102639.23
2023-02-08T15:59:46.063Z,102636.47
2023-02-08T16:02:21.101Z,102639.43
2023-02-08T16:04:49.132Z,102642.75
2023-02-08T16:07:35.154Z,102646.40
2023-02-08T16:10:04.603Z,102647.97
2023-02-08T16:12:33.226Z,102643.84
2023-02-08T16:15:02.854Z,102643.33
2023-02-08T16:17:36.076Z,102641.44
2023-02-08T16:20:31.944Z,102644.38
2023-02-08T16:23:03.884Z,102651.48
2023-02-08T16:25:49.243Z,102648.71
2023-02-08T16:28:35.409Z,102647.84
2023-02-08T16:31:04.410Z,102653.38
2023-02-08T16:33:33.038Z,102651.30
2023-02-08T16:36:03.776Z,102653.69
2023-02-08T16:38:36.612Z,102661.81
2023-02-08T16:41:12.299Z,102661.79
2023-02-08T16:43:44.582Z,102656.59
2023-02-08T16:46:19.853Z,102656.04
2023-02-08T16:48:51.527Z,102659.13
2023-02-08T16:51:22.217Z,102663.07
2023-02-08T16:53:51.942Z,102660.48
2023-02-08T16:56:20.128Z,102658.73
2023-02-08T16:58:48.355Z,102658.72
2023-02-08T17:01:45.245Z,102650.95
2023-02-08T17:04:19.124Z,102648.95
2023-02-08T17:06:47.043Z,102651.22
2023-02-08T17:09:15.065Z,102648.79
2023-02-08T17:11:43.008Z,102650.16
2023-02-08T17:14:11.205Z,102651.52
2023-02-08T17:16:40.032Z,102652.71
2023-02-08T17:19:10.866Z,102650.96
2023-02-08T17:21:39.075Z,102651.25
2023-02-08T17:24:06.915Z,102650.02
2023-02-08T17:26:38.919Z,102647.72
2023-02-08T17:29:07.827Z,102649.42
2023-02-08T17:31:36.079Z,102646.11
2023-02-08T17:34:06.915Z,102641.26
2023-02-08T17:36:36.535Z,102638.50
2023-02-08T17:39:05.745Z,102632.80
2023-02-08T17:41:34.563Z,102626.90
2023-02-08T17:44:02.692Z,102621.34
2023-02-08T17:46:31.124Z,102619.58
2023-02-08T17:49:01.704Z,102615.58
2023-02-08T17:51:33.008Z,102617.61
2023-02-08T17:54:05.066Z,102620.38
2023-02-08T17:56:36.726Z,102622.35
2023-02-08T17:59:05.642Z,102622.80
2023-02-08T18:01:34.095Z,102619.89
2023-02-08T18:04:02.656Z,102619.87
2023-02-08T18:06:31.328Z,102621.77
2023-02-08T18:08:59.183Z,102620.53
2023-02-08T18:11:27.272Z,102622.23
2023-02-08T18:13:55.812Z,102621.89
2023-02-08T18:16:26.484Z,102618.27
2023-02-08T18:18:56.497Z,102616.16
2023-02-08T18:21:26.179Z,102614.92
2023-02-08T18:23:55.592Z,102612.13
2023-02-08T18:26:24.230Z,102611.06
2023-02-08T18:28:52.930Z,102609.81
2023-02-08T18:31:21.239Z,102603.23
2023-02-08T18:33:49.962Z,102605.26
2023-02-08T18:36:19.110Z,102602.98
2023-02-08T18:38:47.749Z,102608.66
2023-02-08T18:41:23.905Z,102605.40
2023-02-08T18:43:52.229Z,102601.54
2023-02-08T18:46:21.484Z,102600.04
2023-02-08T18:48:50.831Z,102601.23
2023-02-08T18:51:19.941Z,102601.36
2023-02-08T18:53:50.920Z,102602.90
2023-02-08T18:56:24.275Z,102599.27
2023-02-08T18:58:53.861Z,102601.31
2023-02-08T19:01:23.156Z,102598.88
2023-02-08T19:03:52.195Z,102598.36
2023-02-08T19:08:25.316Z,102600.40
2023-02-08T19:10:53.432Z,102594.33
2023-02-08T19:13:21.396Z,102594.31
2023-02-08T19:15:49.928Z,102592.91
2023-02-08T19:18:17.911Z,102588.91
2023-02-08T19:20:45.809Z,102591.80
2023-02-08T19:23:13.692Z,102588.90
2023-02-08T19:25:42.306Z,102588.31
2023-02-08T19:28:10.861Z,102589.23
2023-02-08T19:30:40.188Z,102592.55
2023-02-08T19:33:08.743Z,102591.34
2023-02-08T19:35:38.568Z,102589.61
2023-02-08T19:38:06.701Z,102592.02
2023-02-08T19:40:35.555Z,102591.00
2023-02-08T19:43:04.299Z,102595.66
2023-02-08T19:45:32.539Z,102601.35
2023-02-08T19:48:00.445Z,102604.46
2023-02-08T19:50:28.733Z,102603.25
2023-02-08T19:52:57.334Z,102599.79
2023-02-08T19:55:26.002Z,102593.40
2023-02-08T19:57:54.374Z,102593.41
2023-02-08T20:00:24.282Z,102590.83
2023-02-08T20:02:52.855Z,102586.69
2023-02-08T20:05:20.864Z,102584.27
2023-02-08T20:07:49.561Z,102578.89
2023-02-08T20:10:18.277Z,102575.33
2023-02-08T20:12:46.394Z,102577.30
2023-02-08T20:15:16.092Z,102574.79
2023-02-08T20:17:46.119Z,102575.83
2023-02-08T20:20:14.709Z,102574.45
2023-02-08T20:22:43.114Z,102570.97
2023-02-08T20:25:10.996Z,102570.27
2023-02-08T20:27:39.225Z,102565.44
2023-02-08T20:30:07.596Z,102563.85
2023-02-08T20:32:35.887Z,102565.54
2023-02-08T20:35:04.619Z,102561.71
2023-02-08T20:37:33.757Z,102561.19
2023-02-08T20:40:01.897Z,102558.58
2023-02-08T20:42:30.339Z,102557.36
2023-02-08T20:44:58.479Z,102552.85
2023-02-08T20:47:28.536Z,102552.14
2023-02-08T20:49:59.615Z,102546.94
2023-02-08T20:52:29.583Z,102546.84
2023-02-08T20:54:57.686Z,102547.93
2023-02-08T20:57:25.767Z,102543.50
2023-02-08T20:59:53.979Z,102544.70
2023-02-08T21:02:22.576Z,102539.49
2023-02-08T21:04:50.500Z,102539.98
2023-02-08T21:07:18.514Z,102543.09
2023-02-08T21:09:47.081Z,102539.63
2023-02-08T21:12:14.979Z,102533.39
2023-02-08T21:14:44.704Z,102532.50
2023-02-08T21:17:17.788Z,102533.17
2023-02-08T21:19:47.816Z,102531.06
2023-02-08T21:22:17.196Z,102527.08
2023-02-08T21:24:45.146Z,102526.19
2023-02-08T21:27:13.526Z,102529.30
2023-02-08T21:29:42.198Z,102526.97
2023-02-08T21:32:10.323Z,102527.90
2023-02-08T21:34:38.280Z,102530.85
2023-02-08T21:37:06.209Z,102532.07
2023-02-08T21:39:34.694Z,102537.24
2023-02-08T21:42:03.145Z,102539.81
2023-02-08T21:44:35.249Z,102541.70
2023-02-08T21:47:03.275Z,102543.07
2023-02-08T21:49:50.426Z,102543.55
2023-02-08T21:52:37.008Z,102541.78
2023-02-08T21:55:06.019Z,102544.15
2023-02-08T21:57:39.944Z,102541.88
2023-02-08T22:00:10.390Z,102538.73
2023-02-08T22:02:41.338Z,102538.86
2023-02-08T22:05:28.529Z,102534.89
2023-02-08T22:08:00.048Z,102534.29
2023-02-08T22:10:30.372Z,102534.02
2023-02-08T22:12:58.972Z,102530.59
2023-02-08T22:15:29.231Z,102525.76
2023-02-08T22:17:59.089Z,102528.15
2023-02-08T22:20:28.101Z,102525.38
2023-02-08T22:22:56.418Z,102524.14
2023-02-08T22:25:24.818Z,102521.02
2023-02-08T22:27:53.355Z,102519.27
2023-02-08T22:30:23.837Z,102513.39
2023-02-08T22:32:53.397Z,102509.23
2023-02-08T22:35:22.755Z,102508.86
2023-02-08T22:37:50.974Z,102509.52
2023-02-08T22:40:19.251Z,102508.30
2023-02-08T22:42:47.585Z,102503.54
2023-02-08T22:45:15.480Z,102499.30
2023-02-08T22:47:44.687Z,102495.71
2023-02-08T22:50:14.375Z,102487.95
2023-02-08T22:52:42.445Z,102488.10
2023-02-08T22:55:12.381Z,102487.40
2023-02-08T22:57:43.630Z,102482.39
2023-02-08T23:00:14.394Z,102477.19
2023-02-08T23:02:43.125Z,102474.23
2023-02-08T23:05:11.319Z,102478.50
2023-02-08T23:07:40.347Z,102473.12
2023-02-08T23:10:09.643Z,102471.36
2023-02-08T23:12:38.163Z,102471.88
2023-02-08T23:15:06.749Z,102475.21
2023-02-08T23:17:36.528Z,102476.85
2023-02-08T23:20:04.625Z,102476.37
2023-02-08T23:22:36.691Z,102473.59
2023-02-08T23:25:05.152Z,102472.88
2023-02-08T23:27:33.911Z,102477.34
2023-02-08T23:30:02.082Z,102477.11
2023-02-08T23:32:30.340Z,102477.96
2023-02-08T23:34:58.410Z,102471.73
2023-02-08T23:37:26.994Z,102469.27
2023-02-08T23:39:55.278Z,102464.73
2023-02-08T23:42:26.881Z,102462.45
2023-02-08T23:44:56.132Z,102460.96
2023-02-08T23:47:24.518Z,102460.52
2023-02-08T23:49:52.700Z,102455.04
2023-02-08T23:52:21.062Z,102449.70
2023-02-08T23:54:49.560Z,102445.88
2023-02-08T23:57:17.857Z,102439.30
2023-02-08T23:59:45.979Z,102438.09
